createdAt,value
2023-02-11T00:00:09.848Z,-0.43
2023-02-11T00:05:13.400Z,-0.58
2023-02-11T00:10:16.852Z,-0.65
2023-02-11T00:15:22.316Z,-0.66
2023-02-11T00:20:25.820Z,-0.84
2023-02-11T00:25:29.305Z,-0.85
2023-02-11T00:30:34.292Z,-1.02
2023-02-11T00:35:39.022Z,-0.97
2023-02-11T00:40:42.558Z,-1.16
2023-02-11T00:45:47.464Z,-1.23
2023-02-11T00:50:50.865Z,-1.30
2023-02-11T00:55:54.214Z,-1.25
2023-02-11T01:00:59.122Z,-1.29
2023-02-11T01:06:02.702Z,-1.33
2023-02-11T01:11:08.794Z,-1.39
2023-02-11T01:16:14.278Z,-1.48
2023-02-11T01:21:17.668Z,-1.49
2023-02-11T01:26:21.120Z,-1.51
2023-02-11T01:31:25.940Z,-1.61
2023-02-11T01:36:29.197Z,-1.51
2023-02-11T01:41:32.617Z,-1.47
2023-02-11T01:46:39.271Z,-1.14
2023-02-11T01:51:46.765Z,-0.98
2023-02-11T01:57:10.494Z,-0.92
2023-02-11T02:02:18.860Z,-0.73
2023-02-11T02:07:30.527Z,-0.55
2023-02-11T02:12:34.006Z,-0.59
2023-02-11T02:17:46.242Z,-0.42
2023-02-11T02:23:19.177Z,-0.28
2023-02-11T02:28:48.548Z,-0.20
2023-02-11T02:33:57.917Z,-0.22
2023-02-11T02:39:05.971Z,-0.22
2023-02-11T02:44:10.300Z,-0.20
2023-02-11T02:49:18.076Z,-0.24
2023-02-11T02:54:37.636Z,-0.47
2023-02-11T02:59:51.936Z,-0.63
2023-02-11T03:05:03.575Z,-0.73
2023-02-11T03:10:11.952Z,-1.00
2023-02-11T03:15:17.915Z,-0.90
2023-02-11T03:20:24.463Z,-0.94
2023-02-11T03:25:36.585Z,-0.92
2023-02-11T03:30:44.450Z,-0.68
2023-02-11T03:35:53.488Z,-0.81
2023-02-11T03:40:59.357Z,-0.95
2023-02-11T03:46:05.061Z,-1.14
2023-02-11T03:51:12.865Z,-1.22
2023-02-11T03:56:19.088Z,-1.37
2023-02-11T04:01:22.710Z,-1.85
2023-02-11T04:06:27.607Z,-1.88
2023-02-11T04:11:30.820Z,-2.04
2023-02-11T04:16:34.382Z,-2.14
2023-02-11T04:21:39.341Z,-2.15
2023-02-11T04:26:42.848Z,-2.39
2023-02-11T04:31:46.412Z,-2.36
2023-02-11T04:36:51.519Z,-2.36
2023-02-11T04:41:55.032Z,-2.54
2023-02-11T04:46:58.767Z,-2.27
2023-02-11T04:52:03.645Z,-2.13
2023-02-11T04:57:07.213Z,-2.16
2023-02-11T05:02:10.576Z,-2.11
2023-02-11T05:07:15.688Z,-2.16
2023-02-11T05:12:19.412Z,-2.18
2023-02-11T05:17:22.944Z,-2.20
2023-02-11T05:22:27.860Z,-2.04
2023-02-11T05:27:31.270Z,-2.14
2023-02-11T05:32:34.808Z,-1.99
2023-02-11T05:37:39.714Z,-1.64
2023-02-11T05:42:43.266Z,-1.62
2023-02-11T05:47:46.729Z,-1.48
2023-02-11T05:52:51.525Z,-1.38
2023-02-11T05:57:55.123Z,-1.24
2023-02-11T06:02:58.583Z,-1.15
2023-02-11T06:08:03.368Z,-1.10
2023-02-11T06:13:06.530Z,-0.91
2023-02-11T06:18:10.142Z,-1.16
2023-02-11T06:23:14.912Z,-1.04
2023-02-11T06:28:18.408Z,-0.53
2023-02-11T06:33:21.826Z,-0.38
2023-02-11T06:38:26.733Z,-0.29
2023-02-11T06:43:30.230Z,-0.17
2023-02-11T06:48:33.601Z,0.07
2023-02-11T06:53:40.100Z,0.20
2023-02-11T06:58:43.656Z,0.49
2023-02-11T07:03:47.365Z,0.75
2023-02-11T07:08:52.130Z,0.90
2023-02-11T07:13:57.600Z,1.78
2023-02-11T07:19:01.127Z,2.27
2023-02-11T07:24:10.764Z,2.05
2023-02-11T07:29:14.673Z,2.53
2023-02-11T07:34:18.290Z,3.36
2023-02-11T07:39:23.184Z,5.63
2023-02-11T07:44:26.560Z,5.35
2023-02-11T07:49:30.212Z,4.76
2023-02-11T07:54:35.198Z,4.46
2023-02-11T07:59:38.710Z,4.11
2023-02-11T08:04:42.144Z,3.56
2023-02-11T08:09:47.321Z,3.06
2023-02-11T08:14:51.573Z,3.01
2023-02-11T08:19:54.961Z,3.03
2023-02-11T08:24:59.970Z,2.84
2023-02-11T08:30:03.375Z,2.07
2023-02-11T08:35:09.515Z,1.76
2023-02-11T08:40:14.510Z,1.34
2023-02-11T08:45:18.082Z,1.43
2023-02-11T08:50:21.859Z,0.80
2023-02-11T08:55:26.684Z,0.58
2023-02-11T09:00:29.804Z,0.87
2023-02-11T09:05:33.193Z,1.00
2023-02-11T09:10:38.415Z,0.92
2023-02-11T09:15:41.777Z,0.53
2023-02-11T09:20:45.099Z,0.40
2023-02-11T09:25:50.232Z,0.22
2023-02-11T09:30:54.187Z,-0.09
2023-02-11T09:35:57.914Z,0.04
2023-02-11T09:41:07.927Z,0.17
2023-02-11T09:46:15.442Z,-0.30
2023-02-11T09:51:29.574Z,-0.16
2023-02-11T09:56:34.538Z,-0.33
2023-02-11T10:01:41.300Z,-0.43
2023-02-11T10:06:47.603Z,-0.11
2023-02-11T10:12:03.240Z,-0.38
2023-02-11T10:17:19.153Z,-0.41
2023-02-11T10:22:28.708Z,-0.25
2023-02-11T10:27:36.018Z,-0.22
2023-02-11T10:32:45.937Z,-0.14
2023-02-11T10:37:50.064Z,-0.08
2023-02-11T10:42:57.969Z,0.43
2023-02-11T10:48:02.530Z,0.55
2023-02-11T10:53:20.774Z,0.35
2023-02-11T10:58:29.732Z,0.39
2023-02-11T11:03:37.813Z,0.45
2023-02-11T11:08:45.064Z,0.35
2023-02-11T11:13:59.458Z,0.35
2023-02-11T11:19:21.572Z,0.36
2023-02-11T11:24:29.699Z,0.47
2023-02-11T11:29:37.269Z,0.65
2023-02-11T11:34:45.330Z,0.31
2023-02-11T11:39:57.267Z,0.48
2023-02-11T11:45:03.343Z,0.36
2023-02-11T11:50:26.745Z,0.00
2023-02-11T11:55:36.602Z,0.06
2023-02-11T12:00:53.424Z,0.17
2023-02-11T12:06:22.359Z,0.10
2023-02-11T12:11:34.708Z,0.04
2023-02-11T12:16:48.590Z,0.09
2023-02-11T12:22:02.719Z,0.12
2023-02-11T12:27:13.013Z,-0.35
2023-02-11T12:32:27.648Z,-0.27
2023-02-11T12:37:43.694Z,-0.13
2023-02-11T12:43:14.024Z,-0.35
2023-02-11T12:48:35.969Z,-0.06
2023-02-11T12:54:16.168Z,-0.17
2023-02-11T12:59:30.929Z,-0.48
2023-02-11T13:04:42.279Z,-0.47
2023-02-11T13:09:52.694Z,-0.60
2023-02-11T13:15:00.728Z,-0.86
2023-02-11T13:20:16.308Z,-0.97
2023-02-11T13:25:31.035Z,-0.85
2023-02-11T13:31:12.964Z,-1.41
2023-02-11T13:36:21.041Z,-1.43
2023-02-11T13:41:28.995Z,-1.62
2023-02-11T13:47:09.978Z,-1.57
2023-02-11T13:52:26.251Z,-1.67
2023-02-11T13:57:39.472Z,-1.70
2023-02-11T14:03:00.556Z,-1.89
2023-02-11T14:08:39.221Z,-1.79
2023-02-11T14:14:19.459Z,-1.77
2023-02-11T14:19:33.724Z,-1.92
2023-02-11T14:24:52.381Z,-2.02
2023-02-11T14:30:10.406Z,-1.98
2023-02-11T14:35:21.939Z,-1.94
2023-02-11T14:40:33.464Z,-2.05
2023-02-11T14:45:38.591Z,-1.91
2023-02-11T14:50:45.647Z,-1.96
2023-02-11T14:55:52.733Z,-1.98
2023-02-11T15:00:58.990Z,-1.91
2023-02-11T15:06:06.779Z,-1.93
2023-02-11T15:11:14.600Z,-1.74
2023-02-11T15:16:21.806Z,-1.94
2023-02-11T15:21:28.053Z,-1.79
2023-02-11T15:26:33.439Z,-1.77
2023-02-11T15:31:37.177Z,-1.88
2023-02-11T15:36:40.813Z,-1.57
2023-02-11T15:41:47.305Z,-1.67
2023-02-11T15:46:50.888Z,-1.54
2023-02-11T15:51:58.330Z,-1.36
2023-02-11T15:57:06.417Z,-1.56
2023-02-11T16:02:17.627Z,-1.46
2023-02-11T16:07:43.079Z,-1.35
2023-02-11T16:12:54.896Z,-1.50
2023-02-11T16:17:58.770Z,-1.47
2023-02-11T16:23:04.117Z,-1.32
2023-02-11T16:28:17.475Z,-1.33
2023-02-11T16:33:21.574Z,-1.48
2023-02-11T16:38:25.380Z,-1.31
2023-02-11T16:43:30.408Z,-1.20
2023-02-11T16:48:35.180Z,-1.27
2023-02-11T16:53:38.539Z,-1.00
2023-02-11T16:58:43.645Z,-0.99
2023-02-11T17:03:47.160Z,-0.92
2023-02-11T17:08:50.740Z,-0.94
2023-02-11T17:13:55.688Z,-0.84
2023-02-11T17:18:59.075Z,-0.72
2023-02-11T17:24:02.412Z,-0.68
2023-02-11T17:29:08.581Z,-0.90
2023-02-11T17:34:12.818Z,-0.62
2023-02-11T17:39:16.517Z,-0.71
2023-02-11T17:44:21.345Z,-0.93
2023-02-11T17:49:24.692Z,-0.87
2023-02-11T17:54:28.307Z,-1.01
2023-02-11T17:59:35.647Z,-0.89
2023-02-11T18:04:39.386Z,-0.79
2023-02-11T18:09:43.285Z,-0.77
2023-02-11T18:14:48.073Z,-0.79
2023-02-11T18:19:51.730Z,-0.96
2023-02-11T18:24:55.938Z,-0.58
2023-02-11T18:30:00.768Z,-0.75
2023-02-11T18:35:03.980Z,-0.37
2023-02-11T18:40:08.239Z,-0.30
2023-02-11T18:45:15.908Z,-0.39
2023-02-11T18:50:22.292Z,-0.42
2023-02-11T18:55:26.409Z,-0.20
2023-02-11T19:00:31.492Z,-0.16
2023-02-11T19:05:42.585Z,-0.23
2023-02-11T19:10:48.345Z,-0.55
2023-02-11T19:15:53.630Z,-0.33
2023-02-11T19:20:57.127Z,-0.31
2023-02-11T19:26:00.571Z,-0.30
2023-02-11T19:31:10.657Z,-0.41
2023-02-11T19:36:16.542Z,-0.28
2023-02-11T19:41:22.363Z,-0.12
2023-02-11T19:46:28.586Z,-0.17
2023-02-11T19:51:33.926Z,-0.21
2023-02-11T19:56:38.233Z,-0.25
2023-02-11T20:01:44.633Z,-0.05
2023-02-11T20:06:49.636Z,-0.06
2023-02-11T20:11:53.167Z,-0.05
2023-02-11T20:16:58.192Z,-0.06
2023-02-11T20:22:01.711Z,0.01
2023-02-11T20:27:08.444Z,0.17
2023-02-11T20:32:13.760Z,0.19
2023-02-11T20:37:18.033Z,0.09
2023-02-11T20:42:21.405Z,0.30
2023-02-11T20:47:26.344Z,0.16
2023-02-11T20:52:29.931Z,0.16
2023-02-11T20:57:35.218Z,0.12
2023-02-11T21:02:40.357Z,0.21
2023-02-11T21:07:43.781Z,0.15
2023-02-11T21:12:49.797Z,0.08
2023-02-11T21:17:54.764Z,0.10
2023-02-11T21:22:58.175Z,0.16
2023-02-11T21:28:01.731Z,0.21
2023-02-11T21:33:07.147Z,0.39
2023-02-11T21:38:10.708Z,0.32
2023-02-11T21:43:14.211Z,0.34
2023-02-11T21:48:20.090Z,0.41
2023-02-11T21:53:23.464Z,0.58
2023-02-11T21:58:26.862Z,0.54
2023-02-11T22:03:31.712Z,0.63
2023-02-11T22:08:34.782Z,0.71
2023-02-11T22:13:38.424Z,0.64
2023-02-11T22:18:46.049Z,0.62
2023-02-11T22:23:50.314Z,0.68
2023-02-11T22:28:53.868Z,0.74
2023-02-11T22:33:59.256Z,0.84
2023-02-11T22:39:03.940Z,0.97
2023-02-11T22:44:07.660Z,0.90
2023-02-11T22:49:15.531Z,1.13
2023-02-11T22:54:20.422Z,1.16
2023-02-11T22:59:23.820Z,1.30
2023-02-11T23:04:28.618Z,1.28
2023-02-11T23:09:31.968Z,1.25
2023-02-11T23:14:35.417Z,1.14
2023-02-11T23:19:40.154Z,1.09
2023-02-11T23:24:43.442Z,1.01
2023-02-11T23:29:47.375Z,0.70
2023-02-11T23:34:52.976Z,0.74
2023-02-11T23:39:56.336Z,0.66
2023-02-11T23:44:59.819Z,0.46
2023-02-11T23:50:04.969Z,0.41
2023-02-11T23:55:08.622Z,0.23
